Time;durP1;ratioP1;P1;durP2;ratioP2;P2;SDS_P1;SDS_P2;PMS_P1;PMS_P2;Temp;Humidity;BMP_temperature;BMP_pressure;BME280_temperature;BME280_humidity;BME280_pressure;Samples;Min_cycle;Max_cycle;Signal;HPM_P1;HPM_P2
2021/06/07 00:01:34;;;;;;;14.70;13.10;;;;;;;16.66;77.34;100310.63;5032600;28;20057;-68
2021/06/07 00:04:01;;;;;;;20.00;16.30;;;;;;;16.70;77.22;100312.13;5032417;28;20042;-69
2021/06/07 00:06:26;;;;;;;17.38;15.57;;;;;;;16.73;76.39;100310.13;5032016;28;20033;-69
2021/06/07 00:08:52;;;;;;;18.05;15.20;;;;;;;16.77;76.45;100312.59;5032408;28;20068;-69
2021/06/07 00:11:18;;;;;;;25.23;21.05;;;;;;;16.73;76.03;100312.78;5032729;28;20065;-69
2021/06/07 00:13:44;;;;;;;24.60;21.02;;;;;;;16.72;75.46;100313.75;5032459;28;20030;-69
2021/06/07 00:16:11;;;;;;;26.30;22.08;;;;;;;16.62;74.98;100310.00;5032083;28;20083;-69
2021/06/07 00:18:37;;;;;;;23.35;20.75;;;;;;;16.59;75.09;100315.53;5032225;28;20685;-69
2021/06/07 00:21:09;;;;;;;28.65;20.45;;;;;;;16.57;75.41;100317.44;5032352;28;20034;-70
2021/06/07 00:23:35;;;;;;;24.10;20.73;;;;;;;16.55;75.67;100319.34;5033574;28;20432;-69
2021/06/07 00:26:02;;;;;;;24.17;20.00;;;;;;;16.56;75.42;100317.50;5033825;28;20033;-69
2021/06/07 00:28:28;;;;;;;24.05;20.23;;;;;;;16.53;75.02;100316.75;5033588;28;20437;-70
2021/06/07 00:30:53;;;;;;;21.58;19.35;;;;;;;16.49;75.08;100317.06;5032330;28;20083;-69
2021/06/07 00:33:18;;;;;;;19.73;17.67;;;;;;;16.52;75.36;100319.53;5032251;28;20059;-70
2021/06/07 00:35:44;;;;;;;21.23;17.40;;;;;;;16.51;74.91;100316.03;5031859;28;20400;-70
2021/06/07 00:38:09;;;;;;;24.38;17.75;;;;;;;16.45;74.04;100315.56;5032094;28;21066;-70
2021/06/07 00:40:35;;;;;;;17.83;15.27;;;;;;;16.38;73.99;100315.09;5032098;28;20544;-70
2021/06/07 00:43:02;;;;;;;16.98;14.20;;;;;;;16.41;74.05;100316.72;5031786;28;20129;-69
2021/06/07 00:45:30;;;;;;;16.65;13.93;;;;;;;16.38;73.15;100315.09;5031779;28;20159;-69
2021/06/07 00:47:58;;;;;;;17.98;13.52;;;;;;;16.37;73.06;100310.75;5030223;28;20045;-70
2021/06/07 00:50:36;;;;;;;16.05;12.70;;;;;;;16.37;73.14;100320.53;5031447;28;20512;-70
2021/06/07 00:53:04;;;;;;;13.85;11.63;;;;;;;16.36;72.77;100311.69;5031902;28;20535;-68
2021/06/07 00:55:36;;;;;;;15.23;12.50;;;;;;;16.34;72.77;100315.41;5032531;28;20037;-69
2021/06/07 00:58:03;;;;;;;14.15;12.65;;;;;;;16.33;72.71;100311.03;5032091;28;20520;-69
2021/06/07 01:00:29;;;;;;;12.80;10.68;;;;;;;16.36;73.02;100317.00;5008179;28;20029;-70
2021/06/07 01:02:55;;;;;;;12.50;10.90;;;;;;;16.39;72.77;100315.94;5030165;28;20541;-69
2021/06/07 01:05:21;;;;;;;13.90;11.80;;;;;;;16.40;72.83;100315.88;5031059;28;20045;-69
2021/06/07 01:07:46;;;;;;;13.35;10.85;;;;;;;16.43;72.98;100317.47;5032226;28;20056;-69
2021/06/07 01:10:12;;;;;;;13.60;11.57;;;;;;;16.43;72.69;100317.47;5031768;28;20033;-68
2021/06/07 01:12:38;;;;;;;11.32;9.65;;;;;;;16.49;72.97;100317.06;5031264;28;20044;-68
2021/06/07 01:15:06;;;;;;;12.18;10.98;;;;;;;16.55;72.37;100315.81;5031131;28;20041;-68
2021/06/07 01:17:32;;;;;;;15.57;13.20;;;;;;;16.51;73.03;100310.72;5030968;28;20040;-68
2021/06/07 01:19:57;;;;;;;17.50;12.93;;;;;;;16.50;72.92;100311.63;5030681;28;20037;-69
2021/06/07 01:22:23;;;;;;;14.38;11.18;;;;;;;16.53;73.16;100313.25;5031052;28;20120;-69
2021/06/07 01:24:48;;;;;;;11.15;9.80;;;;;;;16.55;73.33;100316.66;5030790;28;20497;-69
2021/06/07 01:27:14;;;;;;;15.27;12.93;;;;;;;16.58;73.09;100319.13;5029048;28;20432;-69
2021/06/07 01:29:39;;;;;;;14.05;12.20;;;;;;;16.53;73.28;100311.44;5030352;28;20037;-69
2021/06/07 01:32:05;;;;;;;15.95;12.27;;;;;;;16.50;73.34;100316.97;5030976;28;20396;-69
2021/06/07 01:34:33;;;;;;;22.90;12.30;;;;;;;16.51;73.48;100307.16;5030709;28;20049;-69
2021/06/07 01:36:59;;;;;;;11.88;9.93;;;;;;;16.51;73.36;100308.03;5029980;28;20498;-69
2021/06/07 01:39:27;;;;;;;10.82;9.73;;;;;;;16.53;73.24;100313.25;5029285;28;20041;-69
2021/06/07 01:41:55;;;;;;;16.10;12.85;;;;;;;16.46;72.82;100317.25;5031105;28;20371;-69
2021/06/07 01:44:21;;;;;;;15.32;10.32;;;;;;;16.42;72.99;100311.31;5033799;28;20061;-68
2021/06/07 01:46:47;;;;;;;15.30;11.73;;;;;;;16.42;73.18;100307.78;5031324;28;20120;-68
2021/06/07 01:49:12;;;;;;;14.70;9.70;;;;;;;16.43;73.24;100307.66;5031692;28;20091;-68
2021/06/07 01:51:38;;;;;;;13.25;10.95;;;;;;;16.45;73.11;100308.44;5031364;28;20034;-69
2021/06/07 01:54:04;;;;;;;13.77;10.38;;;;;;;16.41;73.08;100306.91;5031722;28;20060;-69
2021/06/07 01:56:29;;;;;;;12.32;10.60;;;;;;;16.38;73.85;100308.94;5030665;28;20084;-69
2021/06/07 01:58:54;;;;;;;16.55;9.55;;;;;;;16.39;73.41;100303.53;5030469;28;20029;-69
2021/06/07 02:01:23;;;;;;;12.68;10.38;;;;;;;16.43;73.17;100314.81;5030834;28;20030;-69
2021/06/07 02:03:49;;;;;;;9.35;8.32;;;;;;;16.41;73.65;100309.56;5030541;28;20068;-69
2021/06/07 02:06:20;;;;;;;13.13;10.02;;;;;;;16.40;73.67;100305.22;5030151;28;20485;-69
2021/06/07 02:08:46;;;;;;;13.55;10.43;;;;;;;16.41;73.50;100300.75;5029743;28;20029;-69
2021/06/07 02:11:18;;;;;;;10.85;9.73;;;;;;;16.39;73.18;100310.63;5029903;28;20060;-68
2021/06/07 02:13:48;;;;;;;14.32;12.25;;;;;;;16.37;73.11;100308.09;5028794;28;20646;-67
2021/06/07 02:16:19;;;;;;;14.57;11.35;;;;;;;16.33;73.72;100308.38;5029867;28;20108;-69
2021/06/07 02:18:45;;;;;;;16.58;13.45;;;;;;;16.29;73.55;100305.94;5029933;28;20034;-67
2021/06/07 02:21:12;;;;;;;10.40;8.75;;;;;;;16.28;73.32;100306.00;5029860;28;20029;-68
2021/06/07 02:23:37;;;;;;;12.48;8.63;;;;;;;16.27;73.48;100302.50;5029717;28;20087;-68
2021/06/07 02:26:06;;;;;;;13.00;11.20;;;;;;;16.28;73.57;100306.00;5029603;28;20049;-68
2021/06/07 02:28:32;;;;;;;13.10;10.13;;;;;;;16.28;73.25;100306.84;5029628;28;20034;-68
2021/06/07 02:30:57;;;;;;;11.40;9.80;;;;;;;16.25;73.18;100308.88;5029528;28;20508;-69
2021/06/07 02:33:23;;;;;;;10.95;9.00;;;;;;;16.24;73.47;100307.16;5029709;28;20034;-69
2021/06/07 02:35:48;;;;;;;12.75;10.90;;;;;;;16.17;73.76;100301.41;5029515;28;20481;-69
2021/06/07 02:38:14;;;;;;;15.52;11.65;;;;;;;16.16;73.57;100302.31;5029368;28;20021;-69
2021/06/07 02:40:44;;;;;;;12.30;10.68;;;;;;;16.12;73.74;100307.94;5029749;28;20034;-68
2021/06/07 02:43:09;;;;;;;14.25;9.70;;;;;;;16.10;73.89;100300.94;5029488;28;20041;-69
2021/06/07 02:45:35;;;;;;;11.32;9.68;;;;;;;16.12;73.98;100308.81;5030116;28;20034;-69
2021/06/07 02:48:02;;;;;;;16.83;10.07;;;;;;;16.08;73.88;100297.50;5028874;28;20025;-69
2021/06/07 02:50:31;;;;;;;16.50;12.43;;;;;;;15.98;74.10;100307.03;5029126;28;20037;-69
2021/06/07 02:52:57;;;;;;;9.40;8.30;;;;;;;15.95;74.51;100309.88;5028923;28;20048;-69
2021/06/07 02:55:24;;;;;;;13.52;9.48;;;;;;;15.95;74.50;100307.22;5028891;28;20126;-69
2021/06/07 02:57:50;;;;;;;14.75;10.25;;;;;;;15.94;74.52;100313.47;5029265;28;20037;-69
2021/06/07 03:00:27;;;;;;;12.98;10.98;;;;;;;15.94;74.81;100312.63;5029324;28;20171;-69
2021/06/07 03:02:58;;;;;;;12.65;9.63;;;;;;;15.93;74.81;100308.28;5029120;28;20040;-69
2021/06/07 03:05:24;;;;;;;10.93;7.97;;;;;;;15.94;74.89;100309.97;5029061;28;20033;-68
2021/06/07 03:07:50;;;;;;;14.98;11.40;;;;;;;15.95;74.57;100315.22;5029228;28;20044;-69
2021/06/07 03:10:16;;;;;;;12.77;11.43;;;;;;;15.89;74.77;100311.09;5029089;28;20482;-69
2021/06/07 03:12:41;;;;;;;15.60;13.45;;;;;;;15.80;75.04;100311.72;5029220;28;20037;-69
2021/06/07 03:15:09;;;;;;;17.08;12.77;;;;;;;15.75;75.61;100308.47;5028996;28;20468;-68
2021/06/07 03:17:34;;;;;;;17.48;11.35;;;;;;;15.78;75.43;100318.91;5029400;28;20112;-69
2021/06/07 03:20:00;;;;;;;10.38;9.27;;;;;;;15.82;75.46;100314.25;5029255;28;20108;-69
2021/06/07 03:22:25;;;;;;;14.10;12.27;;;;;;;15.84;75.33;100318.53;5029020;28;20041;-69
2021/06/07 03:24:52;;;;;;;11.70;9.95;;;;;;;15.89;75.27;100326.22;5029218;28;20038;-69
2021/06/07 03:27:18;;;;;;;15.43;12.32;;;;;;;15.92;74.71;100323.34;5028861;28;20048;-69
2021/06/07 03:29:45;;;;;;;15.95;13.25;;;;;;;15.91;75.29;100321.66;5029011;28;20045;-69
2021/06/07 03:32:10;;;;;;;15.68;13.07;;;;;;;15.92;75.08;100319.84;5028867;28;20033;-69
2021/06/07 03:34:36;;;;;;;17.23;15.43;;;;;;;15.89;75.14;100313.75;5029679;28;20033;-69
2021/06/07 03:37:01;;;;;;;17.38;15.40;;;;;;;15.88;75.33;100321.84;5028928;28;20124;-70
2021/06/07 03:39:27;;;;;;;14.00;11.48;;;;;;;15.89;75.27;100323.56;5029200;28;20543;-69
2021/06/07 03:41:52;;;;;;;17.25;15.48;;;;;;;15.88;75.42;100321.84;5028895;28;20045;-69
2021/06/07 03:44:17;;;;;;;19.98;17.92;;;;;;;15.85;75.54;100317.59;5029041;28;20064;-69
2021/06/07 03:46:43;;;;;;;16.33;14.63;;;;;;;15.85;75.31;100319.38;5028389;28;20045;-69
2021/06/07 03:49:08;;;;;;;14.75;13.07;;;;;;;15.85;75.75;100319.38;5028956;28;20503;-69
2021/06/07 03:51:34;;;;;;;16.80;13.13;;;;;;;15.84;75.57;100320.34;5029382;28;20099;-69
2021/06/07 03:54:00;;;;;;;13.98;11.95;;;;;;;15.89;75.45;100316.41;5029029;28;20033;-69
2021/06/07 03:56:25;;;;;;;22.55;17.45;;;;;;;15.93;75.16;100311.78;5028794;28;20557;-69
2021/06/07 03:58:50;;;;;;;16.63;14.57;;;;;;;15.92;75.37;100318.03;5028755;28;20113;-69
2021/06/07 04:01:16;;;;;;;14.88;13.20;;;;;;;15.90;75.47;100322.63;5030908;28;20109;-69
2021/06/07 04:03:41;;;;;;;17.23;14.77;;;;;;;15.93;75.66;100322.41;5030822;28;20452;-70
2021/06/07 04:06:06;;;;;;;17.02;15.32;;;;;;;15.94;75.44;100320.59;5030026;28;20120;-68
2021/06/07 04:08:32;;;;;;;19.45;16.70;;;;;;;15.92;75.17;100326.00;5033102;28;20034;-70
2021/06/07 04:10:57;;;;;;;22.23;17.10;;;;;;;15.89;75.03;100318.25;5032482;28;20030;-69
2021/06/07 04:13:23;;;;;;;24.38;17.40;;;;;;;15.81;75.46;100313.41;5032432;28;20522;-69
2021/06/07 04:15:48;;;;;;;20.67;17.63;;;;;;;15.78;75.75;100320.72;5032132;28;20075;-70
2021/06/07 04:18:14;;;;;;;22.58;17.25;;;;;;;15.79;75.75;100325.94;5032146;28;20029;-69
2021/06/07 04:20:39;;;;;;;18.70;15.50;;;;;;;15.79;75.82;100322.44;5032215;28;20029;-68
2021/06/07 04:23:04;;;;;;;21.25;16.45;;;;;;;15.83;75.66;100321.28;5032592;28;20401;-68
2021/06/07 04:25:30;;;;;;;17.80;13.70;;;;;;;15.89;75.81;100316.41;5031879;28;20033;-69
2021/06/07 04:27:58;;;;;;;22.63;19.05;;;;;;;15.90;75.69;100311.97;5032083;28;20033;-69
2021/06/07 04:30:25;;;;;;;27.60;21.65;;;;;;;15.93;75.45;100319.75;5031967;28;20029;-70
2021/06/07 04:32:52;;;;;;;23.98;18.17;;;;;;;15.99;75.13;100314.03;5031796;28;20037;-69
2021/06/07 04:35:18;;;;;;;20.60;17.55;;;;;;;16.03;75.10;100314.72;5031577;28;20396;-69
2021/06/07 04:37:51;;;;;;;34.08;24.48;;;;;;;16.02;74.78;100315.66;5031778;28;20033;-68
2021/06/07 04:40:29;;;;;;;38.42;28.77;;;;;;;16.01;74.74;100314.81;5032051;28;20033;-69
2021/06/07 04:42:56;;;;;;;42.20;29.42;;;;;;;15.95;74.89;100309.88;5030620;28;20112;-69
2021/06/07 04:45:23;;;;;;;42.50;29.77;;;;;;;15.95;75.00;100320.53;5031108;28;20463;-67
2021/06/07 04:47:49;;;;;;;44.45;31.15;;;;;;;15.91;74.93;100316.34;5031488;28;20481;-68
2021/06/07 04:50:17;;;;;;;54.72;38.45;;;;;;;15.87;74.44;100314.81;5031274;28;20507;-68
2021/06/07 04:52:57;;;;;;;52.13;34.03;;;;;;;15.93;74.59;100314.44;5031334;28;20049;-69
2021/06/07 04:55:33;;;;;;;52.38;31.25;;;;;;;16.00;74.83;100310.44;5031424;28;20029;-68
2021/06/07 04:58:00;;;;;;;59.00;38.15;;;;;;;16.04;74.40;100317.25;5030904;28;20087;-69
2021/06/07 05:00:27;;;;;;;46.03;31.95;;;;;;;16.02;74.71;100305.91;5031404;28;20032;-69
2021/06/07 05:02:53;;;;;;;47.47;33.03;;;;;;;16.06;74.26;100317.19;5031497;28;20033;-69
2021/06/07 05:05:20;;;;;;;44.33;32.33;;;;;;;16.07;74.26;100317.09;5031091;28;20033;-69
2021/06/07 05:07:45;;;;;;;54.50;33.50;;;;;;;16.13;73.94;100323.81;5031164;28;20139;-69
2021/06/07 05:10:11;;;;;;;47.20;34.10;;;;;;;16.09;74.32;100323.13;5031401;28;20101;-68
2021/06/07 05:12:37;;;;;;;39.60;29.02;;;;;;;16.13;74.03;100315.00;5032003;28;20037;-69
2021/06/07 05:15:05;;;;;;;57.08;38.35;;;;;;;16.09;73.89;100323.13;5031728;28;20083;-69
2021/06/07 05:17:31;;;;;;;61.65;42.50;;;;;;;16.11;73.42;100317.72;5031134;28;20381;-69
2021/06/07 05:19:56;;;;;;;57.30;37.95;;;;;;;16.17;73.12;100324.47;5031517;28;20113;-70
2021/06/07 05:22:21;;;;;;;71.25;48.50;;;;;;;16.16;72.07;100331.59;5031266;28;20049;-69
2021/06/07 05:24:48;;;;;;;60.33;40.50;;;;;;;16.08;72.75;100328.56;5029764;28;20136;-70
2021/06/07 05:27:13;;;;;;;60.72;40.03;;;;;;;16.13;72.48;100330.94;5031288;28;20044;-70
2021/06/07 05:29:39;;;;;;;61.45;40.58;;;;;;;16.20;72.35;100332.28;5032248;28;20037;-70
2021/06/07 05:32:05;;;;;;;70.70;46.55;;;;;;;16.14;72.28;100330.84;5032245;28;20087;-69
2021/06/07 05:34:30;;;;;;;72.32;48.22;;;;;;;16.07;72.42;100330.38;5032715;28;20034;-70
2021/06/07 05:36:55;;;;;;;61.15;42.58;;;;;;;16.09;72.17;100328.47;5031657;28;20080;-70
2021/06/07 05:39:21;;;;;;;68.05;46.08;;;;;;;16.07;71.97;100327.72;5031881;28;20060;-70
2021/06/07 05:41:47;;;;;;;66.20;44.75;;;;;;;16.11;72.11;100328.38;5031403;28;20041;-70
2021/06/07 05:44:12;;;;;;;63.78;41.00;;;;;;;16.19;72.13;100328.72;5031028;28;20040;-70
2021/06/07 05:46:38;;;;;;;61.30;41.78;;;;;;;16.33;71.62;100321.69;5030768;28;20033;-69
2021/06/07 05:49:04;;;;;;;63.33;40.30;;;;;;;16.45;71.23;100320.88;5031983;28;20033;-70
2021/06/07 05:51:29;;;;;;;62.55;40.85;;;;;;;16.53;71.27;100323.91;5030784;28;20048;-69
2021/06/07 05:53:54;;;;;;;69.85;46.70;;;;;;;16.66;70.73;100329.25;5030598;28;20440;-69
2021/06/07 05:56:20;;;;;;;70.82;44.05;;;;;;;16.73;69.44;100327.91;5030555;28;20485;-69
2021/06/07 05:58:45;;;;;;;72.28;45.58;;;;;;;16.73;69.76;100333.22;5030105;28;20033;-69
2021/06/07 06:01:11;;;;;;;50.92;36.70;;;;;;;16.77;69.51;100334.75;5030383;28;20425;-69
2021/06/07 06:03:36;;;;;;;58.42;37.25;;;;;;;16.92;68.53;100338.22;5031111;28;20037;-68
2021/06/07 06:06:01;;;;;;;57.90;37.00;;;;;;;16.99;68.75;100331.53;5030880;28;20033;-68
2021/06/07 06:08:27;;;;;;;60.90;40.53;;;;;;;17.01;67.97;100331.44;5030476;28;20037;-69
2021/06/07 06:10:52;;;;;;;56.35;36.40;;;;;;;17.03;68.17;100334.84;5038946;28;20064;-69
2021/06/07 06:13:17;;;;;;;47.15;33.15;;;;;;;17.09;67.20;100329.09;5044103;28;20112;-67
2021/06/07 06:15:43;;;;;;;49.85;32.65;;;;;;;17.17;67.33;100332.09;5037641;28;20038;-70
2021/06/07 06:18:08;;;;;;;46.63;33.03;;;;;;;17.23;66.60;100336.16;5030342;28;20035;-68
2021/06/07 06:20:33;;;;;;;58.45;40.35;;;;;;;17.27;66.55;100330.50;5031388;28;20037;-68
2021/06/07 06:22:59;;;;;;;57.08;41.42;;;;;;;17.27;65.79;100338.50;5030207;28;20028;-68
2021/06/07 06:25:26;;;;;;;61.58;38.88;;;;;;;17.25;66.94;100335.09;5029127;28;20115;-68
2021/06/07 06:27:51;;;;;;;56.25;37.60;;;;;;;17.44;66.58;100328.50;5030127;28;20045;-68
2021/06/07 06:30:21;;;;;;;57.28;37.70;;;;;;;17.41;66.16;100331.38;5029442;28;20056;-68
2021/06/07 06:32:50;;;;;;;55.03;35.65;;;;;;;17.35;66.89;100329.97;5029931;28;20037;-68
2021/06/07 06:35:15;;;;;;;65.72;41.85;;;;;;;17.38;66.90;100333.31;5027832;28;20034;-69
2021/06/07 06:37:43;;;;;;;73.70;43.35;;;;;;;17.35;66.87;100330.84;5029406;28;20050;-67
2021/06/07 06:40:11;;;;;;;62.83;40.72;;;;;;;17.34;66.67;100341.59;5030249;28;20187;-67
2021/06/07 06:42:38;;;;;;;56.88;39.17;;;;;;;17.37;65.80;100334.25;5031545;28;20053;-68
2021/06/07 06:45:04;;;;;;;57.88;39.88;;;;;;;17.38;64.90;100332.44;5029962;28;20033;-68
2021/06/07 06:47:30;;;;;;;56.20;36.70;;;;;;;17.35;65.44;100337.97;5029673;28;20036;-68
2021/06/07 06:49:55;;;;;;;53.97;38.00;;;;;;;17.47;65.36;100342.47;5029777;28;20033;-68
2021/06/07 06:52:21;;;;;;;64.20;41.10;;;;;;;17.50;64.77;100346.72;5028873;28;20111;-67
2021/06/07 06:54:46;;;;;;;56.13;37.72;;;;;;;17.39;64.14;100335.00;5029592;28;20029;-67
2021/06/07 06:57:11;;;;;;;48.03;32.83;;;;;;;17.71;63.24;100341.72;5028774;28;20029;-67
2021/06/07 06:59:37;;;;;;;49.58;34.70;;;;;;;17.66;63.49;100343.88;5029617;28;20044;-68
2021/06/07 07:02:02;;;;;;;44.22;31.05;;;;;;;17.70;63.53;100350.69;5029347;28;20049;-67
2021/06/07 07:04:28;;;;;;;51.03;35.40;;;;;;;17.76;63.07;100343.09;5029535;28;20052;-67
2021/06/07 07:06:53;;;;;;;51.00;35.95;;;;;;;17.84;62.79;100339.91;5028964;28;20057;-67
2021/06/07 07:09:18;;;;;;;41.92;29.25;;;;;;;17.93;62.41;100344.63;5029335;28;20120;-67
2021/06/07 07:11:44;;;;;;;44.05;30.13;;;;;;;17.93;62.24;100347.28;5029099;28;20087;-68
2021/06/07 07:14:09;;;;;;;48.58;32.92;;;;;;;18.06;61.60;100341.06;5029198;28;20041;-68
2021/06/07 07:16:34;;;;;;;51.83;33.83;;;;;;;17.93;61.76;100341.09;5029294;28;20029;-68
2021/06/07 07:19:00;;;;;;;46.65;29.88;;;;;;;18.19;61.48;100337.41;5027878;28;20450;-68
2021/06/07 07:21:25;;;;;;;50.67;31.55;;;;;;;18.38;60.82;100339.59;5029254;28;20029;-67
2021/06/07 07:23:51;;;;;;;54.95;36.13;;;;;;;18.58;60.45;100338.16;5029318;28;20056;-68
2021/06/07 07:26:16;;;;;;;43.42;28.52;;;;;;;18.60;60.19;100341.53;5028676;28;20136;-69
2021/06/07 07:28:43;;;;;;;41.92;29.08;;;;;;;18.91;59.86;100349.97;5029662;28;20501;-69
2021/06/07 07:31:08;;;;;;;47.72;33.65;;;;;;;19.25;58.41;100342.94;5029217;28;20036;-68
2021/06/07 07:33:44;;;;;;;49.25;34.38;;;;;;;20.05;55.74;100342.06;5030014;28;20033;-69
2021/06/07 07:36:14;;;;;;;46.88;33.80;;;;;;;21.01;53.29;100335.97;5028359;28;20422;-68
2021/06/07 07:38:40;;;;;;;36.08;29.70;;;;;;;21.80;51.18;100340.88;5028568;28;20041;-69
2021/06/07 07:41:06;;;;;;;38.10;28.85;;;;;;;22.00;50.16;100344.53;5032249;28;20034;-69
2021/06/07 07:43:31;;;;;;;38.95;33.35;;;;;;;22.33;49.09;100339.84;5032802;28;20053;-69
2021/06/07 07:45:59;;;;;;;41.80;33.97;;;;;;;22.56;48.58;100336.91;5032661;28;20434;-69
2021/06/07 07:48:24;;;;;;;40.03;31.10;;;;;;;22.55;48.77;100345.97;5032728;28;20111;-69
2021/06/07 07:50:50;;;;;;;38.95;34.45;;;;;;;22.68;48.09;100343.84;5032737;28;20461;-68
2021/06/07 07:53:16;;;;;;;39.90;35.05;;;;;;;22.20;48.54;100342.78;5032538;28;20033;-68
2021/06/07 07:55:42;;;;;;;42.05;31.92;;;;;;;21.76;49.86;100342.16;5032597;28;20037;-68
2021/06/07 07:58:11;;;;;;;41.92;34.50;;;;;;;21.31;51.06;100345.09;5033066;28;20078;-68
2021/06/07 08:00:38;;;;;;;41.15;32.15;;;;;;;20.97;52.32;100333.72;5031239;28;20095;-69
2021/06/07 08:03:04;;;;;;;42.78;35.40;;;;;;;20.68;52.81;100344.19;5032574;28;20029;-68
2021/06/07 08:05:30;;;;;;;38.92;30.70;;;;;;;20.56;52.92;100333.47;5032159;28;20038;-68
2021/06/07 08:07:56;;;;;;;44.95;34.20;;;;;;;20.42;53.27;100341.75;5032684;28;20075;-67
2021/06/07 08:10:22;;;;;;;36.08;29.33;;;;;;;20.77;51.71;100343.41;5031260;28;20030;-67
2021/06/07 08:12:47;;;;;;;35.28;26.35;;;;;;;20.61;52.21;100338.47;5032596;28;20094;-68
2021/06/07 08:15:14;;;;;;;37.50;28.80;;;;;;;21.22;50.59;100340.53;5032368;28;20036;-68
2021/06/07 08:17:40;;;;;;;34.45;27.25;;;;;;;21.88;48.99;100329.50;5032190;28;20095;-68
2021/06/07 08:20:14;;;;;;;32.75;27.25;;;;;;;21.99;48.20;100336.59;5032753;28;20109;-68
2021/06/07 08:22:40;;;;;;;34.92;27.77;;;;;;;21.69;48.87;100338.28;5032130;28;20079;-68
2021/06/07 08:25:07;;;;;;;32.03;24.13;;;;;;;22.31;47.76;100341.81;5032337;28;20044;-68
2021/06/07 08:27:32;;;;;;;34.75;28.27;;;;;;;22.52;44.62;100333.66;5032026;28;20616;-69
2021/06/07 08:29:57;;;;;;;29.95;24.55;;;;;;;22.50;45.37;100336.47;5032742;28;20060;-69
2021/06/07 08:32:23;;;;;;;29.73;25.58;;;;;;;22.65;44.94;100334.22;5032353;28;20079;-69
2021/06/07 08:34:49;;;;;;;34.63;26.95;;;;;;;22.68;44.61;100342.00;5032082;28;20087;-68
2021/06/07 08:37:14;;;;;;;28.38;25.17;;;;;;;22.88;45.61;100348.25;5031435;28;20037;-68
2021/06/07 08:39:40;;;;;;;24.98;21.85;;;;;;;22.79;46.40;100343.75;5031903;28;20060;-69
2021/06/07 08:42:06;;;;;;;31.55;26.65;;;;;;;21.86;48.40;100343.03;5030277;28;20033;-68
2021/06/07 08:44:31;;;;;;;34.47;26.25;;;;;;;21.10;50.15;100347.78;5031695;28;20099;-69
2021/06/07 08:46:57;;;;;;;32.45;26.85;;;;;;;20.76;51.30;100349.75;5031259;28;20065;-68
2021/06/07 08:49:24;;;;;;;31.92;23.00;;;;;;;20.48;52.26;100353.81;5031720;28;20045;-67
2021/06/07 08:51:50;;;;;;;30.42;22.90;;;;;;;20.72;51.95;100350.97;5030859;28;20438;-67
2021/06/07 08:54:15;;;;;;;27.42;22.40;;;;;;;21.19;49.87;100348.81;5031289;28;20045;-70
2021/06/07 08:56:43;;;;;;;26.60;20.58;;;;;;;21.19;50.31;100352.38;5031396;28;20075;-69
2021/06/07 08:59:08;;;;;;;29.50;24.15;;;;;;;21.20;49.95;100354.06;5030456;28;20034;-69
2021/06/07 09:01:34;;;;;;;28.95;23.23;;;;;;;21.01;50.16;100356.59;5031481;28;20041;-69
2021/06/07 09:04:09;;;;;;;28.08;23.50;;;;;;;21.92;48.05;100348.84;5031410;28;20042;-69
2021/06/07 09:06:38;;;;;;;28.58;20.70;;;;;;;22.89;46.20;100344.59;5031300;28;20064;-69
2021/06/07 09:09:06;;;;;;;28.80;23.90;;;;;;;23.74;44.14;100342.94;5031273;28;20056;-69
2021/06/07 09:11:50;;;;;;;29.85;22.23;;;;;;;23.07;44.93;100342.06;5030908;28;20099;-68
2021/06/07 09:14:24;;;;;;;25.33;21.27;;;;;;;22.53;46.68;100342.56;5030744;28;20461;-67
2021/06/07 09:16:50;;;;;;;24.73;21.63;;;;;;;22.23;47.72;100350.56;5030267;28;20108;-67
2021/06/07 09:19:21;;;;;;;28.58;23.17;;;;;;;22.05;47.78;100347.66;5030921;28;20087;-68
2021/06/07 09:21:47;;;;;;;29.92;24.35;;;;;;;21.62;49.23;100351.38;5031304;28;20029;-68
2021/06/07 09:24:14;;;;;;;26.77;22.73;;;;;;;21.60;49.11;100353.34;5031088;28;20045;-68
2021/06/07 09:26:43;;;;;;;28.67;22.83;;;;;;;21.40;49.99;100352.38;5029283;28;20557;-67
2021/06/07 09:29:33;;;;;;;23.35;20.83;;;;;;;21.91;48.52;100349.84;5031143;28;20113;-68
2021/06/07 09:31:59;;;;;;;23.90;20.40;;;;;;;23.05;46.16;100351.25;5029950;28;20041;-68
2021/06/07 09:34:36;;;;;;;22.45;16.73;;;;;;;24.04;43.85;100349.06;5030754;28;20037;-67
2021/06/07 09:37:12;;;;;;;21.98;18.05;;;;;;;23.63;43.76;100351.19;5030376;28;20131;-68
2021/06/07 09:39:39;;;;;;;21.92;17.13;;;;;;;23.55;44.45;100345.66;5030408;28;20045;-69
2021/06/07 09:42:08;;;;;;;20.88;18.70;;;;;;;24.04;43.30;100340.13;5030962;28;20502;-68
2021/06/07 09:44:45;;;;;;;17.60;14.68;;;;;;;24.12;42.98;100353.69;5030762;28;20029;-70
2021/06/07 09:47:30;;;;;;;17.75;15.35;;;;;;;23.94;42.45;100350.94;5030348;28;20370;-69
2021/06/07 09:49:58;;;;;;;18.00;15.48;;;;;;;23.22;44.65;100357.75;5031013;28;20037;-69
2021/06/07 09:52:27;;;;;;;18.95;16.70;;;;;;;22.86;45.63;100360.97;5030970;28;20040;-68
2021/06/07 09:55:12;;;;;;;19.17;16.42;;;;;;;22.56;46.25;100355.72;5030754;28;20055;-69
2021/06/07 09:57:48;;;;;;;21.15;19.00;;;;;;;23.30;44.33;100353.34;5030607;28;20029;-68
2021/06/07 10:00:33;;;;;;;22.08;19.33;;;;;;;24.11;42.65;100352.84;5030572;28;20044;-69
2021/06/07 10:03:17;;;;;;;23.58;17.45;;;;;;;22.83;44.45;100353.19;5029177;28;20040;-69
2021/06/07 10:05:43;;;;;;;18.55;16.65;;;;;;;22.38;45.96;100353.72;5030035;28;20067;-69
2021/06/07 10:08:08;;;;;;;20.83;16.42;;;;;;;22.19;46.42;100350.94;5033390;28;20029;-69
2021/06/07 10:10:34;;;;;;;20.58;16.23;;;;;;;23.10;44.99;100352.53;5031178;28;20398;-68
2021/06/07 10:13:05;;;;;;;24.92;18.55;;;;;;;23.57;43.49;100343.66;5030127;28;20037;-68
2021/06/07 10:15:36;;;;;;;18.40;15.77;;;;;;;24.39;41.99;100340.25;5029914;28;20037;-68
2021/06/07 10:18:06;;;;;;;15.90;13.55;;;;;;;25.12;40.86;100338.44;5029741;28;20083;-67
2021/06/07 10:22:59;;;;;;;24.13;21.60;;;;;;;23.79;42.07;100346.03;5029551;28;20042;-69
2021/06/07 10:25:24;;;;;;;23.52;17.90;;;;;;;24.29;40.96;100336.72;5029415;28;20029;-70
2021/06/07 10:27:50;;;;;;;25.25;20.33;;;;;;;25.00;39.53;100337.81;5028396;28;20086;-69
2021/06/07 10:30:22;;;;;;;23.38;19.70;;;;;;;25.42;39.15;100339.88;5028730;28;20091;-69
2021/06/07 10:32:49;;;;;;;23.33;19.35;;;;;;;25.62;38.50;100335.97;5030107;28;20057;-69
2021/06/07 10:35:28;;;;;;;18.58;16.63;;;;;;;25.88;37.77;100333.25;5029971;28;20068;-69
2021/06/07 10:38:08;;;;;;;21.35;17.63;;;;;;;24.87;39.45;100330.13;5029994;28;20048;-68
2021/06/07 10:40:39;;;;;;;23.00;19.23;;;;;;;24.13;40.89;100332.00;5030260;28;20025;-67
2021/06/07 10:43:07;;;;;;;19.00;16.60;;;;;;;25.21;38.63;100324.03;5029585;28;20490;-68
2021/06/07 10:45:38;;;;;;;19.70;16.73;;;;;;;25.54;37.37;100327.78;5029341;28;20145;-69
2021/06/07 10:48:06;;;;;;;18.10;15.95;;;;;;;24.71;39.50;100327.25;5029160;28;20038;-68
2021/06/07 10:50:43;;;;;;;21.70;18.45;;;;;;;25.44;38.27;100324.34;5029470;28;20029;-69
2021/06/07 10:53:24;;;;;;;18.27;16.27;;;;;;;25.12;39.60;100331.19;5028403;28;20045;-68
2021/06/07 10:56:06;;;;;;;22.13;17.02;;;;;;;24.28;41.12;100329.66;5028868;28;20033;-68
2021/06/07 10:58:31;;;;;;;17.77;14.75;;;;;;;23.51;42.96;100328.97;5028987;28;20064;-68
2021/06/07 11:00:58;;;;;;;18.70;14.73;;;;;;;23.23;44.42;100330.69;5029471;28;20440;-67
2021/06/07 11:03:26;;;;;;;17.83;15.30;;;;;;;23.08;44.69;100329.44;5029454;28;20091;-68
2021/06/07 11:05:55;;;;;;;20.55;18.27;;;;;;;22.86;44.91;100328.72;5029156;28;20116;-69
2021/06/07 11:08:34;;;;;;;22.13;18.10;;;;;;;22.20;46.15;100332.03;5027373;28;20041;-68
2021/06/07 11:11:13;;;;;;;18.75;15.73;;;;;;;22.16;47.04;100332.41;5029401;28;20034;-67
2021/06/07 11:13:44;;;;;;;19.63;16.50;;;;;;;21.89;48.66;100330.34;5028299;28;20120;-67